BRIO2: Bridgeport 4E

                                SHEF ID:       BRIO2     Canadian River at Bridgeport, OK
STATION TYPE:
Regulating: Stage = 15.00, Flow = 8372

STAGE RIV-FLOW BAT-LOAD
ft cfs volt
Ccp-Rev Ccp-Rev Ccp-Rev
(America/Chicago)
10/13 00:00 9.91 162 12.73
10/13 01:00 9.91 162 12.73
10/13 02:00 9.91 162 12.71
10/13 03:00 9.91 162 12.71
10/13 04:00 9.91 162 12.69
10/13 05:00 9.90 161 12.68
10/13 06:00 9.90 161 12.67
10/13 07:00 9.90 161 12.63
10/13 08:00 9.86 155 12.62
10/13 09:00 9.78 144 13.45
10/13 10:00 9.83 151 13.80
10/13 11:00 9.83 151 13.76
10/13 12:00 9.79 146 13.55
10/13 13:00 9.88 158 13.55
10/13 14:00 9.82 150 13.54
10/13 15:00 9.80 147 13.54
10/13 16:00 9.83 151 13.53
10/13 17:00 9.85 154 13.49
10/13 18:00 9.89 159 13.41
10/13 19:00 9.88 158 13.19
10/13 20:00 9.89 159 12.86
10/13 21:00 9.89 159 12.71
10/13 22:00 9.88 158 12.72
10/13 23:00 9.88 158 12.72
Data processed at Sat 14Oct2023 04:55 GMT

Parsing this webpage?

Checkout our new Data API! CWMSDataAPI (CDA)

All information presented herein is the property of the government of the United States of America and may be revised or deleted at any time without prior notice. Dissemination of this information without the expressed written consent of the Public Affairs Office, Tulsa District U.S. Army Corps of Engineers is strictly prohibited. These data are gathered electronically and, as presented, have NOT undergone any form of quality control. These data are NOT guaranteed to be valid or correct.